Time;durP1;ratioP1;P1;durP2;ratioP2;P2;SDS_P1;SDS_P2;PMS_P1;PMS_P2;Temp;Humidity;BMP_temperature;BMP_pressure;BME280_temperature;BME280_humidity;BME280_pressure;Samples;Min_cycle;Max_cycle;Signal;HPM_P1;HPM_P2
2021/03/07 00:00:31;;;;;;;18.40;7.57;;;3.10;95.20;;;;;;5013113;28;20229;-68
2021/03/07 00:02:57;;;;;;;16.40;7.53;;;3.10;95.10;;;;;;5029468;28;20623;-69
2021/03/07 00:05:22;;;;;;;22.47;8.70;;;3.10;94.80;;;;;;4996740;28;20225;-69
2021/03/07 00:07:49;;;;;;;16.70;7.33;;;2.90;94.60;;;;;;4995879;28;20248;-68
2021/03/07 00:10:16;;;;;;;25.27;8.30;;;3.00;94.90;;;;;;4996463;28;20242;-69
2021/03/07 00:12:42;;;;;;;20.17;8.17;;;2.90;95.00;;;;;;5028582;28;20470;-68
2021/03/07 00:15:12;;;;;;;19.17;7.97;;;3.00;95.00;;;;;;5011800;28;20460;-68
2021/03/07 00:17:39;;;;;;;17.23;9.37;;;2.90;94.80;;;;;;5012571;28;20452;-68
2021/03/07 00:20:08;;;;;;;20.20;10.20;;;2.90;95.40;;;;;;5011268;28;20464;-68
2021/03/07 00:22:34;;;;;;;20.33;9.27;;;2.90;94.80;;;;;;5026311;28;20454;-67
2021/03/07 00:24:59;;;;;;;25.83;10.47;;;2.90;95.00;;;;;;5010471;28;20607;-69
2021/03/07 00:27:25;;;;;;;24.70;9.17;;;2.90;95.20;;;;;;4995896;28;20221;-69
2021/03/07 00:29:51;;;;;;;25.17;10.27;;;2.90;95.30;;;;;;4992550;28;20268;-69
2021/03/07 00:32:17;;;;;;;30.07;9.73;;;2.90;94.60;;;;;;4993010;28;20237;-70
2021/03/07 00:34:42;;;;;;;28.20;12.00;;;2.80;94.40;;;;;;4992229;28;20278;-67
2021/03/07 00:37:08;;;;;;;25.50;10.50;;;2.80;94.70;;;;;;5008672;28;20217;-69
2021/03/07 00:39:34;;;;;;;20.70;8.33;;;2.80;94.90;;;;;;4992842;28;20232;-69
2021/03/07 00:42:00;;;;;;;20.30;8.80;;;2.80;94.70;;;;;;4991879;28;20465;-69
2021/03/07 00:44:27;;;;;;;16.27;8.00;;;2.70;94.80;;;;;;5025361;28;20315;-69
2021/03/07 00:46:54;;;;;;;25.93;8.93;;;2.80;94.80;;;;;;5008845;28;20477;-68
2021/03/07 00:49:21;;;;;;;14.00;7.73;;;2.80;94.80;;;;;;5008371;28;20540;-69
2021/03/07 00:51:48;;;;;;;18.47;9.60;;;2.80;94.70;;;;;;5011391;28;20459;-69
2021/03/07 00:54:14;;;;;;;15.60;8.27;;;2.80;94.90;;;;;;4998358;28;20451;-69
2021/03/07 00:56:40;;;;;;;22.10;8.43;;;2.70;94.90;;;;;;5012840;28;20810;-69
2021/03/07 00:59:06;;;;;;;28.70;8.80;;;2.50;95.20;;;;;;5029200;28;20459;-68
2021/03/07 01:01:33;;;;;;;20.80;8.67;;;2.60;95.40;;;;;;5012365;28;20475;-68
2021/03/07 01:03:59;;;;;;;21.33;9.60;;;2.60;95.50;;;;;;5028351;28;20221;-71
2021/03/07 01:06:25;;;;;;;24.60;11.60;;;2.60;95.50;;;;;;5028877;28;20468;-68
2021/03/07 01:08:51;;;;;;;29.63;11.00;;;2.60;95.60;;;;;;5011776;28;20229;-69
2021/03/07 01:11:17;;;;;;;34.83;10.20;;;2.60;95.50;;;;;;4995870;28;20259;-68
2021/03/07 01:13:42;;;;;;;28.47;10.90;;;2.70;95.40;;;;;;5012602;28;20221;-72
2021/03/07 01:16:08;;;;;;;37.43;11.37;;;2.60;94.90;;;;;;5012115;28;20965;-68
2021/03/07 01:18:34;;;;;;;33.20;11.10;;;2.60;95.20;;;;;;5029184;28;20295;-70
2021/03/07 01:21:00;;;;;;;32.97;12.10;;;2.60;95.20;;;;;;5011447;28;20239;-71
2021/03/07 01:23:27;;;;;;;29.90;10.27;;;2.60;95.20;;;;;;5037020;28;20216;-69
2021/03/07 01:25:53;;;;;;;21.57;8.87;;;2.30;95.30;;;;;;5033779;28;20236;-68
2021/03/07 01:28:18;;;;;;;19.03;8.67;;;2.30;95.40;;;;;;5012406;28;20459;-67
2021/03/07 01:30:44;;;;;;;13.57;7.30;;;2.30;95.10;;;;;;5011556;28;20228;-68
2021/03/07 01:33:10;;;;;;;22.73;9.20;;;2.40;95.20;;;;;;5012412;28;20279;-70
2021/03/07 01:35:37;;;;;;;22.17;10.93;;;2.40;95.40;;;;;;5012216;28;20236;-69
2021/03/07 01:38:03;;;;;;;19.80;9.57;;;2.40;95.40;;;;;;5011639;28;20223;-69
2021/03/07 01:40:45;;;;;;;21.50;9.43;;;2.40;95.20;;;;;;5011014;28;20460;-69
2021/03/07 01:43:12;;;;;;;25.07;9.57;;;2.40;95.20;;;;;;5037783;28;20809;-68
2021/03/07 01:45:38;;;;;;;22.13;9.20;;;2.40;95.60;;;;;;5035644;28;20538;-70
2021/03/07 01:48:06;;;;;;;20.57;9.10;;;2.40;95.50;;;;;;5011817;28;20477;-71
2021/03/07 01:50:35;;;;;;;20.73;7.93;;;2.40;95.40;;;;;;5021234;28;20460;-71
2021/03/07 01:53:01;;;;;;;29.13;7.73;;;2.40;95.40;;;;;;5011104;28;20822;-69
2021/03/07 01:55:30;;;;;;;18.17;8.03;;;2.40;95.60;;;;;;5028361;28;21075;-70
2021/03/07 01:58:11;;;;;;;12.93;7.20;;;2.40;95.50;;;;;;5008126;28;20546;-70
2021/03/07 02:00:59;;;;;;;9.30;5.03;;;2.30;95.40;;;;;;5025447;28;20465;-70
2021/03/07 02:03:25;;;;;;;10.63;5.47;;;2.30;95.40;;;;;;5020160;28;20457;-70
2021/03/07 02:05:51;;;;;;;9.13;6.00;;;2.30;95.90;;;;;;5027383;28;20482;-70
2021/03/07 02:08:18;;;;;;;11.43;6.10;;;2.30;95.50;;;;;;5009880;28;20522;-70
2021/03/07 02:10:57;;;;;;;9.90;5.90;;;2.30;95.70;;;;;;5020418;28;20626;-69
2021/03/07 02:13:31;;;;;;;9.80;6.03;;;2.30;95.50;;;;;;5015090;28;20511;-70
2021/03/07 02:16:09;;;;;;;8.63;5.70;;;2.30;95.40;;;;;;5011711;28;20451;-69
2021/03/07 02:18:37;;;;;;;11.00;5.33;;;2.30;95.40;;;;;;5015843;28;20454;-69
2021/03/07 02:21:09;;;;;;;6.80;4.33;;;2.30;95.50;;;;;;5011764;28;20484;-68
2021/03/07 02:23:59;;;;;;;7.73;4.83;;;2.30;95.40;;;;;;5032970;28;20463;-69
2021/03/07 02:26:25;;;;;;;4.97;4.13;;;2.30;95.40;;;;;;5031594;28;20459;-71
2021/03/07 02:28:51;;;;;;;8.20;4.73;;;2.30;95.40;;;;;;5027395;28;20456;-68
2021/03/07 02:31:25;;;;;;;5.93;4.87;;;2.20;95.30;;;;;;5031048;28;20455;-69
2021/03/07 02:34:00;;;;;;;9.73;5.13;;;2.30;95.50;;;;;;5030745;28;20467;-68
2021/03/07 02:36:31;;;;;;;5.90;4.60;;;2.20;95.30;;;;;;5009711;28;21028;-70
2021/03/07 02:38:59;;;;;;;5.90;4.37;;;2.20;95.50;;;;;;5013720;28;20546;-69
2021/03/07 02:41:28;;;;;;;6.03;4.33;;;2.20;95.40;;;;;;4993189;28;20525;-70
2021/03/07 02:43:55;;;;;;;5.40;4.17;;;2.20;95.50;;;;;;5012034;28;20448;-70
2021/03/07 02:46:22;;;;;;;4.73;3.70;;;2.20;95.60;;;;;;5007368;28;20453;-69
2021/03/07 02:48:55;;;;;;;6.30;4.10;;;2.20;95.60;;;;;;5015874;28;20476;-69
2021/03/07 02:51:27;;;;;;;5.57;4.77;;;2.20;95.60;;;;;;5029455;28;20520;-69
2021/03/07 02:53:54;;;;;;;5.80;3.83;;;2.20;95.60;;;;;;5014329;28;20444;-70
2021/03/07 02:56:22;;;;;;;5.50;3.63;;;2.20;95.40;;;;;;4998257;28;20448;-69
2021/03/07 02:58:52;;;;;;;5.30;3.87;;;2.10;95.50;;;;;;4990910;28;20458;-69
2021/03/07 03:01:18;;;;;;;5.90;4.30;;;2.10;95.70;;;;;;4988874;28;20490;-70
2021/03/07 03:03:45;;;;;;;5.47;4.97;;;2.10;95.70;;;;;;5003514;28;20460;-68
2021/03/07 03:06:15;;;;;;;6.13;5.33;;;2.00;95.70;;;;;;5005436;28;20510;-68
2021/03/07 03:08:44;;;;;;;6.50;5.80;;;2.00;96.00;;;;;;4999397;28;20455;-70
2021/03/07 03:11:10;;;;;;;5.97;5.23;;;2.00;95.80;;;;;;5012823;28;20453;-69
2021/03/07 03:13:37;;;;;;;6.03;4.80;;;2.00;95.60;;;;;;5006473;28;20480;-68
2021/03/07 03:16:05;;;;;;;6.83;5.77;;;2.00;95.60;;;;;;5014236;28;20448;-70
2021/03/07 03:18:33;;;;;;;7.40;5.60;;;2.00;95.60;;;;;;5005321;28;20455;-69
2021/03/07 03:21:05;;;;;;;4.20;3.80;;;2.00;95.80;;;;;;5011258;28;20461;-68
2021/03/07 03:23:31;;;;;;;13.37;5.63;;;1.90;95.70;;;;;;4977119;28;20538;-69
2021/03/07 03:26:00;;;;;;;4.83;3.83;;;1.90;96.10;;;;;;5027410;28;20460;-69
2021/03/07 03:28:26;;;;;;;5.57;4.37;;;1.90;95.70;;;;;;5030126;28;20452;-69
2021/03/07 03:30:53;;;;;;;5.17;3.63;;;1.80;95.80;;;;;;4989583;28;20456;-69
2021/03/07 03:33:29;;;;;;;3.53;3.07;;;1.80;96.00;;;;;;5029678;28;20259;-69
2021/03/07 03:35:55;;;;;;;6.70;3.90;;;1.70;96.10;;;;;;5012328;28;20977;-69
2021/03/07 03:38:27;;;;;;;4.40;3.97;;;1.70;96.20;;;;;;4997624;28;20462;-69
2021/03/07 03:41:13;;;;;;;6.23;3.57;;;1.70;96.10;;;;;;5029122;28;20465;-69
2021/03/07 03:43:41;;;;;;;7.97;4.47;;;1.70;95.90;;;;;;5030619;28;20451;-70
2021/03/07 03:46:09;;;;;;;5.60;3.80;;;1.70;96.20;;;;;;5013796;28;20446;-69
2021/03/07 03:48:41;;;;;;;6.00;4.20;;;1.60;96.50;;;;;;5004714;28;20469;-69
2021/03/07 03:51:09;;;;;;;6.47;3.77;;;1.60;96.30;;;;;;5005641;28;20452;-68
2021/03/07 03:53:37;;;;;;;4.53;4.10;;;1.70;96.40;;;;;;5010226;28;20459;-67
2021/03/07 03:56:04;;;;;;;4.93;4.03;;;1.70;96.30;;;;;;5015647;28;20463;-69
2021/03/07 03:58:36;;;;;;;6.50;4.23;;;1.70;96.00;;;;;;5023309;28;20455;-68
2021/03/07 04:01:03;;;;;;;7.27;3.90;;;1.70;96.00;;;;;;5026657;28;20865;-67
2021/03/07 04:03:29;;;;;;;5.03;3.47;;;1.70;96.20;;;;;;5019032;28;20487;-70
2021/03/07 04:05:57;;;;;;;5.23;3.73;;;1.70;96.20;;;;;;5027006;28;20486;-69
2021/03/07 04:08:23;;;;;;;4.83;3.63;;;1.70;96.10;;;;;;5017143;28;20531;-67
2021/03/07 04:10:51;;;;;;;7.93;4.30;;;1.70;95.90;;;;;;5015356;28;20540;-69
2021/03/07 04:13:24;;;;;;;6.93;4.07;;;1.70;96.10;;;;;;5004847;28;20460;-69
2021/03/07 04:15:51;;;;;;;4.87;3.57;;;1.60;96.00;;;;;;5005114;28;20466;-69
2021/03/07 04:18:20;;;;;;;4.70;3.80;;;1.70;96.00;;;;;;5002298;28;20447;-69
2021/03/07 04:20:46;;;;;;;4.40;3.70;;;1.60;96.00;;;;;;4987018;28;20580;-68
2021/03/07 04:23:12;;;;;;;4.40;3.00;;;1.60;95.90;;;;;;5008200;28;20455;-69
2021/03/07 04:25:39;;;;;;;8.00;4.37;;;1.50;95.80;;;;;;5027851;28;20460;-70
2021/03/07 04:28:05;;;;;;;7.63;4.23;;;1.50;95.90;;;;;;5028843;28;20475;-69
2021/03/07 04:30:35;;;;;;;4.37;3.20;;;1.50;96.00;;;;;;5025170;28;20463;-70
2021/03/07 04:33:02;;;;;;;5.90;4.13;;;1.50;96.10;;;;;;5049001;28;20839;-69
2021/03/07 04:35:29;;;;;;;4.07;3.20;;;1.60;96.10;;;;;;5048998;28;20459;-70
2021/03/07 04:38:00;;;;;;;5.87;3.90;;;1.60;96.40;;;;;;5015906;28;20530;-70
2021/03/07 04:41:01;;;;;;;5.53;3.80;;;1.60;96.40;;;;;;5015411;28;20496;-69
2021/03/07 04:43:27;;;;;;;5.60;2.97;;;1.60;96.60;;;;;;5048630;28;20520;-70
2021/03/07 04:45:52;;;;;;;6.23;3.47;;;1.60;96.50;;;;;;5031823;28;20451;-69
2021/03/07 04:48:18;;;;;;;3.63;3.00;;;1.60;96.40;;;;;;5032046;28;20216;-70
2021/03/07 04:50:44;;;;;;;4.10;2.87;;;1.60;96.30;;;;;;5015824;28;20255;-69
2021/03/07 04:53:10;;;;;;;5.90;4.33;;;1.60;96.30;;;;;;5028851;28;20216;-70
2021/03/07 04:55:35;;;;;;;4.30;3.40;;;1.60;96.40;;;;;;5032163;28;20307;-69
2021/03/07 04:58:01;;;;;;;7.13;3.27;;;1.50;96.20;;;;;;5031865;28;20221;-70
2021/03/07 05:00:28;;;;;;;3.30;3.00;;;1.50;96.00;;;;;;5044970;28;20220;-69
2021/03/07 05:02:53;;;;;;;3.87;3.20;;;1.50;96.50;;;;;;5028604;28;20225;-69
2021/03/07 05:05:19;;;;;;;4.60;3.40;;;1.50;96.40;;;;;;5012762;28;20463;-69
2021/03/07 05:07:45;;;;;;;3.80;3.10;;;1.50;96.50;;;;;;5012191;28;20270;-69
2021/03/07 05:10:11;;;;;;;4.23;3.50;;;1.40;96.40;;;;;;5028586;28;20225;-69
2021/03/07 05:12:37;;;;;;;4.33;3.10;;;1.50;96.50;;;;;;5012252;28;20464;-69
2021/03/07 05:15:07;;;;;;;5.67;4.20;;;1.40;96.40;;;;;;5011797;28;20452;-70
2021/03/07 05:17:33;;;;;;;3.67;2.70;;;1.40;96.40;;;;;;5012145;28;20225;-69
2021/03/07 05:20:00;;;;;;;6.33;3.03;;;1.40;96.60;;;;;;5028138;28;20478;-69
2021/03/07 05:22:26;;;;;;;6.90;3.97;;;1.40;96.50;;;;;;5035993;28;20305;-69
2021/03/07 05:24:52;;;;;;;3.43;3.00;;;1.40;96.50;;;;;;5019628;28;21029;-70
2021/03/07 05:27:17;;;;;;;4.27;3.43;;;1.30;96.50;;;;;;5014613;28;20222;-67
2021/03/07 05:29:44;;;;;;;5.63;3.87;;;1.30;96.40;;;;;;5010406;28;20539;-69
2021/03/07 05:32:09;;;;;;;3.20;2.90;;;1.30;96.50;;;;;;5028374;28;20217;-69
2021/03/07 05:34:35;;;;;;;5.80;4.20;;;1.30;96.50;;;;;;5012227;28;20988;-70
2021/03/07 05:37:01;;;;;;;3.83;3.17;;;1.30;96.40;;;;;;4995650;28;20656;-70
2021/03/07 05:39:39;;;;;;;5.07;3.70;;;1.30;96.20;;;;;;5011766;28;20312;-69
2021/03/07 05:42:07;;;;;;;5.03;3.63;;;1.20;96.10;;;;;;4995241;28;20286;-69
2021/03/07 05:44:33;;;;;;;5.60;3.27;;;1.20;96.10;;;;;;5009432;28;20532;-69
2021/03/07 05:46:59;;;;;;;4.33;2.90;;;1.20;96.20;;;;;;5008880;28;20534;-69
2021/03/07 05:49:24;;;;;;;7.23;3.43;;;1.20;96.20;;;;;;5036910;28;21045;-67
2021/03/07 05:51:51;;;;;;;5.07;3.23;;;1.20;96.10;;;;;;5001468;28;20224;-70
2021/03/07 05:54:17;;;;;;;7.57;3.50;;;1.20;96.00;;;;;;5023511;28;20219;-69
2021/03/07 05:56:47;;;;;;;6.83;3.10;;;1.10;96.30;;;;;;5015175;28;20443;-70
2021/03/07 05:59:13;;;;;;;4.90;3.60;;;1.10;96.30;;;;;;5015848;28;20474;-70
2021/03/07 06:01:38;;;;;;;3.50;2.80;;;1.10;96.50;;;;;;5014849;28;20554;-69
2021/03/07 06:04:05;;;;;;;3.27;2.53;;;1.10;96.40;;;;;;5015008;28;20561;-70
2021/03/07 06:06:31;;;;;;;4.70;2.87;;;1.10;96.50;;;;;;5015241;28;20317;-69
2021/03/07 06:09:15;;;;;;;6.07;3.50;;;1.10;96.50;;;;;;5031779;28;20497;-70
2021/03/07 06:11:41;;;;;;;6.53;3.50;;;1.10;96.50;;;;;;5026142;28;20462;-70
2021/03/07 06:14:17;;;;;;;3.53;2.70;;;1.10;96.30;;;;;;5026757;28;20439;-69
2021/03/07 06:17:13;;;;;;;3.10;2.80;;;1.10;96.50;;;;;;5028350;28;20227;-70
2021/03/07 06:20:03;;;;;;;4.00;2.53;;;1.00;96.60;;;;;;5007014;28;20460;-70
2021/03/07 06:22:30;;;;;;;6.77;3.83;;;1.00;96.50;;;;;;5031779;28;20451;-70
2021/03/07 06:24:57;;;;;;;5.67;3.80;;;0.90;96.50;;;;;;5012744;28;20451;-70
2021/03/07 06:27:24;;;;;;;3.97;3.67;;;0.90;96.50;;;;;;5011621;28;20452;-70
2021/03/07 06:30:24;;;;;;;5.37;4.00;;;1.00;96.60;;;;;;5027387;28;20479;-70
2021/03/07 06:32:53;;;;;;;4.83;3.80;;;1.00;96.50;;;;;;5010993;28;20466;-70
2021/03/07 06:35:30;;;;;;;3.50;3.20;;;1.00;96.70;;;;;;4995265;28;20475;-70
2021/03/07 06:38:03;;;;;;;4.27;2.60;;;1.00;96.60;;;;;;5010860;28;20471;-70
2021/03/07 06:40:32;;;;;;;3.57;2.77;;;1.00;96.80;;;;;;5011149;28;20486;-69
2021/03/07 06:43:00;;;;;;;4.50;3.17;;;0.90;96.50;;;;;;5027424;28;20487;-70
2021/03/07 06:45:42;;;;;;;4.60;3.10;;;0.90;96.80;;;;;;5027749;28;20463;-69
2021/03/07 06:48:09;;;;;;;5.20;3.90;;;1.00;97.10;;;;;;5027353;28;20459;-69
2021/03/07 06:50:36;;;;;;;10.13;4.10;;;0.90;96.70;;;;;;5027356;28;20483;-70
2021/03/07 06:53:02;;;;;;;4.90;3.33;;;0.90;96.90;;;;;;5010399;28;20448;-69
2021/03/07 06:55:40;;;;;;;10.03;5.07;;;0.90;96.90;;;;;;5027606;28;20547;-70
2021/03/07 06:58:16;;;;;;;6.60;4.30;;;1.00;96.90;;;;;;5022471;28;20490;-69
2021/03/07 07:00:42;;;;;;;5.30;4.37;;;1.00;97.30;;;;;;5030501;28;20459;-69
2021/03/07 07:03:13;;;;;;;8.63;5.20;;;0.90;96.80;;;;;;5033966;28;20846;-70
2021/03/07 07:05:47;;;;;;;6.40;4.43;;;1.00;97.00;;;;;;5051204;28;20459;-69
2021/03/07 07:08:14;;;;;;;5.70;4.73;;;1.00;97.20;;;;;;5017525;28;20534;-70
2021/03/07 07:10:55;;;;;;;7.70;4.57;;;1.00;97.20;;;;;;5050758;28;20479;-69
2021/03/07 07:13:22;;;;;;;11.57;5.83;;;1.00;97.20;;;;;;5032643;28;20838;-70
2021/03/07 07:15:58;;;;;;;15.73;8.00;;;1.00;97.30;;;;;;4997938;28;20977;-70
2021/03/07 07:18:24;;;;;;;13.97;7.00;;;1.00;97.50;;;;;;5014458;28;20957;-69
2021/03/07 07:20:54;;;;;;;8.53;5.93;;;1.00;97.50;;;;;;5013693;28;20551;-69
2021/03/07 07:23:21;;;;;;;10.37;5.63;;;1.00;97.70;;;;;;5024654;28;20454;-70
2021/03/07 07:25:47;;;;;;;10.27;5.87;;;1.00;97.90;;;;;;5041190;28;20460;-69
2021/03/07 07:28:14;;;;;;;7.90;4.37;;;1.00;98.00;;;;;;5029681;28;20452;-69
2021/03/07 07:30:39;;;;;;;6.10;3.50;;;1.00;98.00;;;;;;5029311;28;20463;-69
2021/03/07 07:33:11;;;;;;;6.60;3.90;;;1.10;98.20;;;;;;5029628;28;20456;-70
2021/03/07 07:35:40;;;;;;;3.87;3.40;;;1.10;98.20;;;;;;5014422;28;20723;-70
2021/03/07 07:38:06;;;;;;;4.13;3.63;;;1.10;98.50;;;;;;5029998;28;20458;-70
2021/03/07 07:40:39;;;;;;;6.47;3.50;;;1.20;98.50;;;;;;5029759;28;20510;-69
2021/03/07 07:43:05;;;;;;;9.30;4.43;;;1.20;98.70;;;;;;5029174;28;20440;-68
2021/03/07 07:45:31;;;;;;;9.10;4.37;;;1.20;99.00;;;;;;5029386;28;20456;-69
2021/03/07 07:47:57;;;;;;;5.63;3.83;;;1.30;99.00;;;;;;5029098;28;20481;-68
2021/03/07 07:50:29;;;;;;;4.57;3.73;;;1.40;99.40;;;;;;5013657;28;20456;-69
2021/03/07 07:52:56;;;;;;;6.30;4.20;;;1.40;99.50;;;;;;5029754;28;20225;-69
2021/03/07 07:55:46;;;;;;;8.27;4.20;;;1.40;99.70;;;;;;5012172;28;20444;-69
2021/03/07 07:58:34;;;;;;;7.10;4.13;;;1.50;99.70;;;;;;5009911;28;20483;-69
2021/03/07 08:01:03;;;;;;;6.60;3.83;;;1.60;99.90;;;;;;5025698;28;20491;-67
2021/03/07 08:03:44;;;;;;;7.40;4.73;;;1.60;99.90;;;;;;5010345;28;20457;-70
2021/03/07 08:06:11;;;;;;;7.10;3.60;;;1.70;99.90;;;;;;4993004;28;20455;-70
2021/03/07 08:08:42;;;;;;;5.77;3.67;;;1.70;99.90;;;;;;5028909;28;20459;-70
2021/03/07 08:11:23;;;;;;;6.73;3.40;;;1.80;99.90;;;;;;4989309;28;21026;-69
2021/03/07 08:13:51;;;;;;;6.90;3.40;;;1.80;99.90;;;;;;5026638;28;20458;-68
2021/03/07 08:16:45;;;;;;;4.43;3.73;;;1.90;99.90;;;;;;5013264;28;20456;-69
2021/03/07 08:19:35;;;;;;;5.97;3.60;;;2.00;99.90;;;;;;5014206;28;20448;-69
2021/03/07 08:22:05;;;;;;;5.77;3.00;;;2.00;99.90;;;;;;5014608;28;20514;-69
2021/03/07 08:24:56;;;;;;;6.37;3.37;;;2.10;99.90;;;;;;5029695;28;20954;-70
2021/03/07 08:27:39;;;;;;;3.67;2.93;;;2.20;99.90;;;;;;4991861;28;20519;-70
2021/03/07 08:30:29;;;;;;;3.20;2.80;;;2.30;99.90;;;;;;5015252;28;20452;-69
2021/03/07 08:32:55;;;;;;;4.50;3.10;;;2.40;99.90;;;;;;5023915;28;20459;-69
2021/03/07 08:35:26;;;;;;;3.80;2.90;;;2.50;99.90;;;;;;5000346;28;20463;-69
2021/03/07 08:38:15;;;;;;;3.77;2.80;;;2.60;99.90;;;;;;5018581;28;20245;-70
2021/03/07 08:40:42;;;;;;;4.00;3.10;;;2.70;99.90;;;;;;5007712;28;20472;-70
2021/03/07 08:43:23;;;;;;;3.43;2.53;;;2.80;99.90;;;;;;5013451;28;20467;-69
2021/03/07 08:45:59;;;;;;;4.90;3.10;;;2.90;99.90;;;;;;5024965;28;20494;-70
2021/03/07 08:48:25;;;;;;;4.70;3.70;;;3.00;99.90;;;;;;5032333;28;20459;-67
2021/03/07 08:50:51;;;;;;;3.30;2.57;;;3.10;99.90;;;;;;4988875;28;21062;-68
2021/03/07 08:53:23;;;;;;;4.60;3.33;;;3.20;99.90;;;;;;5004480;28;20455;-71
2021/03/07 08:55:49;;;;;;;6.70;3.17;;;3.30;99.90;;;;;;5022966;28;20223;-69
2021/03/07 08:58:15;;;;;;;4.27;3.80;;;3.40;99.90;;;;;;5023042;28;20465;-68
2021/03/07 09:00:53;;;;;;;5.60;4.03;;;3.50;99.90;;;;;;4974501;28;20557;-70
2021/03/07 09:03:20;;;;;;;5.97;4.27;;;3.60;99.90;;;;;;5028304;28;20444;-70
2021/03/07 09:05:47;;;;;;;7.47;3.63;;;3.70;99.90;;;;;;5008547;28;20448;-68
2021/03/07 09:08:14;;;;;;;5.27;4.40;;;3.80;99.90;;;;;;5024098;28;20547;-68
2021/03/07 09:10:45;;;;;;;7.40;3.90;;;3.90;99.90;;;;;;5027835;28;20539;-67
2021/03/07 09:13:28;;;;;;;7.77;4.53;;;3.90;99.90;;;;;;4989503;28;20868;-68
2021/03/07 09:15:59;;;;;;;5.50;3.60;;;4.00;99.90;;;;;;4985621;28;20567;-68
2021/03/07 09:18:28;;;;;;;7.07;4.47;;;4.10;99.90;;;;;;4991786;28;20543;-70
2021/03/07 09:20:56;;;;;;;5.47;3.40;;;4.20;99.90;;;;;;5024396;28;20480;-70
2021/03/07 09:23:37;;;;;;;7.37;3.90;;;4.30;99.90;;;;;;5027094;28;20447;-69
2021/03/07 09:26:07;;;;;;;4.83;3.10;;;4.30;99.90;;;;;;5024897;28;20514;-70
2021/03/07 09:28:44;;;;;;;5.13;3.70;;;4.40;99.90;;;;;;4994457;28;20457;-71
2021/03/07 09:31:14;;;;;;;5.47;4.20;;;4.50;99.90;;;;;;5010091;28;20973;-70
2021/03/07 09:34:05;;;;;;;6.87;4.30;;;4.60;99.90;;;;;;5027371;28;20556;-70
2021/03/07 09:36:36;;;;;;;6.80;4.20;;;4.70;99.90;;;;;;5026638;28;20475;-68
2021/03/07 09:39:09;;;;;;;5.27;3.30;;;4.80;99.90;;;;;;5023625;28;20459;-67
2021/03/07 09:41:44;;;;;;;6.17;4.50;;;4.90;99.90;;;;;;5006686;28;20468;-68
2021/03/07 09:44:12;;;;;;;8.20;3.40;;;4.90;99.90;;;;;;5007053;28;20466;-69
2021/03/07 09:46:41;;;;;;;5.87;3.57;;;5.00;99.90;;;;;;5024138;28;20464;-68
2021/03/07 09:49:08;;;;;;;6.03;4.10;;;5.10;99.90;;;;;;5011705;28;20456;-68
2021/03/07 09:51:37;;;;;;;6.07;2.87;;;5.30;99.90;;;;;;5022349;28;20460;-70
2021/03/07 09:54:04;;;;;;;4.33;3.10;;;5.30;99.90;;;;;;5019291;28;20495;-68
2021/03/07 09:56:30;;;;;;;6.10;4.27;;;5.50;99.90;;;;;;4991025;28;20966;-69
2021/03/07 09:59:09;;;;;;;5.53;3.80;;;5.60;99.90;;;;;;5023322;28;20448;-70
2021/03/07 10:01:50;;;;;;;6.07;4.00;;;5.80;99.90;;;;;;5021444;28;20511;-70
2021/03/07 10:04:36;;;;;;;4.40;3.30;;;6.00;99.90;;;;;;5025572;28;20505;-68
2021/03/07 10:07:25;;;;;;;5.03;3.60;;;6.30;99.90;;;;;;5032679;28;20452;-69
2021/03/07 10:10:03;;;;;;;3.83;3.50;;;6.40;99.90;;;;;;5030902;28;20536;-68
2021/03/07 10:15:55;;;;;;;4.80;3.57;;;6.60;99.90;;;;;;5026826;28;20985;-68
2021/03/07 10:18:21;;;;;;;3.87;3.47;;;6.50;99.30;;;;;;4992330;28;20460;-68
2021/03/07 10:20:54;;;;;;;5.00;3.63;;;6.50;99.40;;;;;;4988959;28;20226;-70
2021/03/07 10:23:24;;;;;;;8.40;3.57;;;6.50;99.70;;;;;;5011616;28;20217;-69
2021/03/07 10:25:50;;;;;;;5.80;3.80;;;6.50;99.50;;;;;;5026697;28;20451;-70
2021/03/07 10:28:25;;;;;;;4.73;3.67;;;6.60;99.30;;;;;;4994574;28;21008;-69
2021/03/07 10:30:52;;;;;;;3.50;3.20;;;6.70;99.90;;;;;;5008713;28;20552;-68
2021/03/07 10:33:25;;;;;;;3.10;2.90;;;6.80;99.90;;;;;;4998804;28;20532;-68
2021/03/07 10:36:01;;;;;;;4.10;3.70;;;6.90;99.80;;;;;;4994971;28;20506;-69
2021/03/07 10:38:28;;;;;;;3.90;3.60;;;7.00;99.10;;;;;;5030726;28;20478;-68
2021/03/07 10:40:54;;;;;;;3.60;3.30;;;7.00;99.70;;;;;;5013823;28;20483;-69
2021/03/07 10:43:20;;;;;;;4.40;3.73;;;7.10;99.50;;;;;;5045764;28;21078;-68
2021/03/07 10:45:46;;;;;;;4.87;4.03;;;7.10;99.00;;;;;;5029493;28;20221;-69
2021/03/07 10:48:13;;;;;;;4.77;4.10;;;7.00;98.60;;;;;;5012975;28;20225;-71
2021/03/07 10:50:49;;;;;;;7.00;4.07;;;7.10;99.10;;;;;;5034936;28;20224;-70
2021/03/07 10:53:17;;;;;;;4.70;3.50;;;7.20;99.00;;;;;;5039002;28;20462;-69
2021/03/07 10:55:50;;;;;;;6.00;4.30;;;7.40;99.40;;;;;;5020683;28;20447;-69
2021/03/07 10:58:16;;;;;;;4.43;3.80;;;7.40;98.70;;;;;;5016746;28;20540;-69
2021/03/07 11:00:42;;;;;;;6.17;3.60;;;7.50;98.80;;;;;;5027686;28;20554;-69
2021/03/07 11:03:08;;;;;;;6.33;2.80;;;7.60;98.70;;;;;;5033037;28;20224;-69
2021/03/07 11:05:34;;;;;;;4.43;3.63;;;7.80;98.60;;;;;;5038699;28;20455;-70
2021/03/07 11:07:59;;;;;;;3.00;2.80;;;7.90;98.20;;;;;;5033126;28;20224;-70
2021/03/07 11:10:25;;;;;;;5.60;3.10;;;7.90;98.10;;;;;;5050344;28;20213;-70
2021/03/07 11:12:51;;;;;;;5.50;3.50;;;8.20;97.10;;;;;;5009021;28;20612;-70
2021/03/07 11:15:17;;;;;;;4.20;2.80;;;8.30;97.20;;;;;;5020245;28;20228;-70
2021/03/07 11:17:47;;;;;;;3.90;3.43;;;8.40;97.00;;;;;;5037476;28;20453;-70
2021/03/07 11:20:13;;;;;;;3.47;3.17;;;8.30;96.40;;;;;;4977569;28;20252;-71
2021/03/07 11:22:39;;;;;;;4.30;2.70;;;8.30;96.60;;;;;;5025533;28;20551;-69
2021/03/07 11:25:06;;;;;;;3.43;2.80;;;8.40;96.80;;;;;;5031214;28;20468;-71
2021/03/07 11:27:32;;;;;;;6.37;4.03;;;8.40;96.60;;;;;;5040464;28;20516;-70
2021/03/07 11:29:58;;;;;;;9.03;5.63;;;8.40;96.60;;;;;;5015693;28;20473;-71
2021/03/07 11:32:24;;;;;;;7.20;6.33;;;8.50;96.60;;;;;;5036633;28;20232;-70
2021/03/07 11:34:49;;;;;;;7.00;5.30;;;8.50;96.80;;;;;;5012168;28;20233;-70
2021/03/07 11:37:15;;;;;;;4.80;4.00;;;8.60;96.90;;;;;;5032617;28;20267;-69
2021/03/07 11:39:41;;;;;;;5.73;3.17;;;8.60;96.20;;;;;;5010617;28;20217;-70
2021/03/07 11:42:07;;;;;;;5.50;3.87;;;8.60;96.30;;;;;;5015667;28;20228;-69
2021/03/07 11:44:33;;;;;;;3.70;3.20;;;8.60;96.40;;;;;;5031333;28;20251;-69
2021/03/07 11:46:58;;;;;;;5.30;4.23;;;8.60;95.90;;;;;;5015349;28;20910;-70
2021/03/07 11:49:24;;;;;;;2.70;2.50;;;8.60;95.00;;;;;;5016400;28;20229;-70
2021/03/07 11:51:50;;;;;;;5.83;4.03;;;8.60;95.20;;;;;;5042052;28;20712;-70
2021/03/07 11:54:16;;;;;;;4.30;3.33;;;8.60;95.30;;;;;;5019280;28;20283;-69
2021/03/07 11:56:41;;;;;;;4.13;3.07;;;8.60;94.80;;;;;;4998323;28;20224;-68
2021/03/07 11:59:07;;;;;;;4.47;3.20;;;8.60;95.20;;;;;;5012900;28;20300;-69
2021/03/07 12:01:33;;;;;;;4.23;3.07;;;8.90;94.10;;;;;;5006274;28;20240;-68
2021/03/07 12:03:59;;;;;;;3.60;3.30;;;9.00;95.50;;;;;;5019058;28;20222;-70
2021/03/07 12:06:25;;;;;;;4.73;2.90;;;9.10;95.40;;;;;;5012840;28;20221;-68
2021/03/07 12:08:51;;;;;;;3.83;2.87;;;9.10;95.70;;;;;;5026159;28;21015;-69
2021/03/07 12:11:18;;;;;;;3.13;2.70;;;9.30;96.00;;;;;;5020383;28;20463;-68
2021/03/07 12:13:45;;;;;;;4.80;3.57;;;9.40;96.00;;;;;;5016952;28;20516;-69
2021/03/07 12:16:10;;;;;;;3.93;2.90;;;9.40;94.20;;;;;;5000885;28;20472;-68
2021/03/07 12:18:37;;;;;;;2.80;2.60;;;9.20;93.50;;;;;;5008677;28;20982;-67
2021/03/07 12:21:04;;;;;;;3.60;3.17;;;9.10;93.40;;;;;;5027935;28;20226;-70
2021/03/07 12:23:30;;;;;;;5.67;3.10;;;9.00;94.10;;;;;;5029717;28;20464;-67
2021/03/07 12:25:56;;;;;;;3.90;3.07;;;8.90;94.30;;;;;;5008775;28;20518;-67
2021/03/07 12:28:21;;;;;;;4.30;2.97;;;9.00;94.60;;;;;;5008833;28;20226;-67
2021/03/07 12:30:47;;;;;;;5.23;3.23;;;9.00;93.90;;;;;;5011485;28;20271;-67
2021/03/07 12:33:13;;;;;;;3.70;3.30;;;9.00;94.10;;;;;;4996096;28;20213;-69
2021/03/07 12:35:38;;;;;;;4.03;3.50;;;9.10;94.20;;;;;;4992025;28;20226;-70
2021/03/07 12:38:04;;;;;;;5.30;3.63;;;9.20;93.90;;;;;;5008394;28;20223;-69
2021/03/07 12:40:30;;;;;;;5.37;3.13;;;9.10;92.20;;;;;;4991336;28;20217;-67
2021/03/07 12:42:55;;;;;;;4.20;3.10;;;9.00;92.10;;;;;;5023649;28;20216;-69
2021/03/07 12:45:21;;;;;;;3.70;2.83;;;9.00;93.80;;;;;;4993141;28;20240;-68
2021/03/07 12:47:47;;;;;;;3.40;2.90;;;9.20;94.00;;;;;;5022746;28;20229;-69
2021/03/07 12:50:12;;;;;;;4.10;3.10;;;9.10;93.40;;;;;;5012827;28;20221;-68
2021/03/07 12:52:40;;;;;;;4.10;3.37;;;9.20;94.20;;;;;;5011083;28;20286;-70
2021/03/07 12:55:07;;;;;;;4.20;3.13;;;9.30;94.10;;;;;;4993572;28;20248;-70
2021/03/07 12:57:32;;;;;;;3.73;2.70;;;9.50;93.60;;;;;;5004066;28;20880;-70
2021/03/07 12:59:58;;;;;;;4.47;3.63;;;9.70;94.10;;;;;;5001282;28;20981;-71
2021/03/07 13:02:24;;;;;;;5.63;3.70;;;9.80;93.20;;;;;;5015887;28;20361;-70
2021/03/07 13:04:49;;;;;;;4.40;3.47;;;9.80;94.00;;;;;;5012298;28;20222;-69
2021/03/07 13:07:15;;;;;;;2.80;2.60;;;9.90;94.20;;;;;;5024806;28;20628;-71
2021/03/07 13:09:41;;;;;;;4.83;3.03;;;10.00;93.60;;;;;;5017895;28;20307;-70